Time;durP1;ratioP1;P1;durP2;ratioP2;P2;SDS_P1;SDS_P2;PMS_P1;PMS_P2;Temp;Humidity;BMP_temperature;BMP_pressure;BME280_temperature;BME280_humidity;BME280_pressure;Samples;Min_cycle;Max_cycle;Signal;HPM_P1;HPM_P2
2023/03/04 00:09:05;;;;;;;6.17;0.97;;;5.90;99.90;;;;;;6166780;23;1148073;-91
2023/03/04 00:11:31;;;;;;;2.73;0.30;;;5.90;99.90;;;;;;6142839;23;20030;-91
2023/03/04 00:13:57;;;;;;;3.22;0.40;;;5.80;99.90;;;;;;6167282;23;20099;-91
2023/03/04 00:16:26;;;;;;;2.22;0.45;;;5.80;99.90;;;;;;6142568;23;20048;-92
2023/03/04 00:18:53;;;;;;;5.95;0.85;;;5.80;99.90;;;;;;6166895;23;20020;-92
2023/03/04 00:44:42;;;;;;;4.43;0.70;;;5.80;99.90;;;;;;6224064;22;20036;-94
2023/03/04 00:47:08;;;;;;;1.97;0.50;;;5.80;99.90;;;;;;6196014;23;20089;-94
2023/03/04 00:49:34;;;;;;;3.83;0.47;;;5.80;99.90;;;;;;6196312;23;20023;-92
2023/03/04 00:51:59;;;;;;;1.47;0.40;;;5.70;99.90;;;;;;6196625;23;20016;-92
2023/03/04 00:54:26;;;;;;;2.83;0.60;;;5.80;99.90;;;;;;6171307;23;20319;-94
2023/03/04 01:10:01;;;;;;;5.70;0.88;;;5.80;99.90;;;;;;6186734;23;20510;-90
2023/03/04 01:13:01;;;;;;;3.83;0.90;;;5.80;99.90;;;;;;6161251;23;20086;-89
2023/03/04 01:16:02;;;;;;;8.18;0.70;;;5.80;99.90;;;;;;6168211;23;20024;-93
2023/03/04 01:18:28;;;;;;;5.40;0.88;;;5.80;99.90;;;;;;6178228;23;20076;-95
2023/03/04 01:20:55;;;;;;;3.42;0.63;;;5.80;99.90;;;;;;6178231;23;20047;-96
2023/03/04 01:23:29;;;;;;;3.15;0.88;;;5.80;99.90;;;;;;6204122;23;20450;-95
2023/03/04 01:25:55;;;;;;;4.35;0.70;;;5.80;99.90;;;;;;6179318;23;20027;-92
2023/03/04 01:28:21;;;;;;;4.33;0.50;;;5.80;99.90;;;;;;6157519;23;20024;-96
2023/03/04 01:31:14;;;;;;;5.25;0.82;;;5.80;99.90;;;;;;6204123;23;20044;-96
2023/03/04 01:33:39;;;;;;;4.97;0.40;;;5.80;99.90;;;;;;6182745;23;20016;-96
2023/03/04 01:36:05;;;;;;;4.27;0.60;;;5.80;99.90;;;;;;6157905;23;20099;-92
2023/03/04 01:38:31;;;;;;;4.43;0.83;;;5.80;99.90;;;;;;6157931;23;20013;-96
2023/03/04 01:41:50;;;;;;;3.10;0.53;;;5.80;99.90;;;;;;6182691;23;20113;-96
2023/03/04 01:47:50;;;;;;;4.03;0.50;;;5.70;99.90;;;;;;6222666;23;20027;-91
2023/03/04 01:50:34;;;;;;;3.72;0.70;;;5.70;99.90;;;;;;6195558;23;20099;-91
2023/03/04 01:53:01;;;;;;;2.90;0.45;;;5.70;99.90;;;;;;6195426;23;20445;-95
2023/03/04 01:55:28;;;;;;;4.68;0.73;;;5.70;99.90;;;;;;6195525;23;20012;-94
2023/03/04 01:57:56;;;;;;;;;;;5.60;99.90;;;;;;6195942;23;20152;-95
2023/03/04 02:03:01;;;;;;;4.10;0.60;;;5.60;99.90;;;;;;6215411;23;21619;-93
2023/03/04 02:05:28;;;;;;;5.95;0.68;;;5.70;99.90;;;;;;6165980;23;20052;-92
2023/03/04 02:07:56;;;;;;;5.72;0.68;;;5.60;99.90;;;;;;6141532;23;20013;-91
2023/03/04 02:10:22;;;;;;;4.55;0.73;;;5.60;99.90;;;;;;6166148;23;20055;-93
2023/03/04 02:12:48;;;;;;;6.75;0.80;;;5.60;99.90;;;;;;6165937;23;20063;-93
2023/03/04 02:15:14;;;;;;;3.60;0.60;;;5.60;99.90;;;;;;6165512;23;20044;-93
2023/03/04 02:22:05;;;;;;;3.30;0.60;;;5.60;99.90;;;;;;6108135;23;20034;-96
2023/03/04 02:24:44;;;;;;;9.85;0.75;;;5.60;99.90;;;;;;6132283;23;20000;-96
2023/03/04 02:27:10;;;;;;;3.20;0.60;;;5.60;99.90;;;;;;6181625;23;20023;-96
2023/03/04 02:29:41;;;;;;;3.42;0.52;;;5.60;99.90;;;;;;6182084;23;20020;-96
2023/03/04 02:32:14;;;;;;;4.15;0.55;;;5.60;99.90;;;;;;6178741;23;20016;-96
2023/03/04 02:58:15;;;;;;;4.03;0.70;;;5.60;99.90;;;;;;6186262;23;20028;-89
2023/03/04 03:00:41;;;;;;;3.30;0.60;;;5.60;99.90;;;;;;6111462;23;20017;-94
2023/03/04 03:03:07;;;;;;;5.63;1.00;;;5.60;99.90;;;;;;6136050;23;20017;-93
2023/03/04 03:05:33;;;;;;;2.20;0.40;;;5.60;99.90;;;;;;6135741;23;20017;-95
2023/03/04 03:07:59;;;;;;;7.63;0.90;;;5.60;99.90;;;;;;6135311;23;20346;-94
2023/03/04 03:10:26;;;;;;;3.50;0.40;;;5.60;99.90;;;;;;6137408;23;20059;-93
2023/03/04 03:12:52;;;;;;;2.00;0.40;;;5.70;99.90;;;;;;6113403;23;20092;-91
2023/03/04 03:15:18;;;;;;;5.40;0.93;;;5.70;99.90;;;;;;6113363;23;20064;-92
2023/03/04 03:17:44;;;;;;;3.90;0.85;;;5.60;99.90;;;;;;6137955;23;20041;-93
2023/03/04 03:20:11;;;;;;;0.82;0.20;;;5.60;99.90;;;;;;6137379;23;20024;-92
2023/03/04 03:22:38;;;;;;;4.30;0.60;;;5.60;99.90;;;;;;6137407;23;20017;-89
2023/03/04 03:30:15;;;;;;;4.78;0.55;;;5.60;99.90;;;;;;6197147;23;20025;-94
2023/03/04 03:32:41;;;;;;;4.82;0.70;;;5.60;99.90;;;;;;6145868;23;20025;-96
2023/03/04 03:35:07;;;;;;;2.93;1.17;;;5.70;99.90;;;;;;6146280;23;20009;-95
2023/03/04 03:37:33;;;;;;;4.13;0.60;;;5.60;99.90;;;;;;6147558;23;20451;-92
2023/03/04 03:40:41;;;;;;;3.30;0.50;;;5.70;99.90;;;;;;6143847;23;20051;-94
2023/03/04 03:47:07;;;;;;;2.05;0.30;;;5.70;99.90;;;;;;6195851;23;20087;-93
2023/03/04 03:49:35;;;;;;;4.10;0.37;;;5.70;99.90;;;;;;6140230;23;20025;-95
2023/03/04 03:52:01;;;;;;;3.90;0.50;;;5.70;99.90;;;;;;6141067;23;20517;-90
2023/03/04 03:54:27;;;;;;;4.53;1.00;;;5.70;99.90;;;;;;6141490;23;20025;-96
2023/03/04 03:56:52;;;;;;;1.00;0.30;;;5.70;99.90;;;;;;6145070;23;20017;-96
2023/03/04 03:59:40;;;;;;;2.63;0.30;;;5.70;99.90;;;;;;6144959;23;20053;-95
2023/03/04 04:02:11;;;;;;;3.67;0.50;;;5.70;99.90;;;;;;6142076;23;20017;-91
2023/03/04 04:04:36;;;;;;;1.63;0.20;;;5.70;99.90;;;;;;6142412;23;20091;-95
2023/03/04 04:07:02;;;;;;;5.07;0.50;;;5.70;99.90;;;;;;6140585;23;20072;-95
2023/03/04 04:10:17;;;;;;;2.07;0.40;;;5.70;99.90;;;;;;6142767;23;20024;-90
2023/03/04 04:34:48;;;;;;;1.17;0.20;;;5.70;99.90;;;;;;6217367;23;20017;-92
2023/03/04 04:37:13;;;;;;;5.73;0.30;;;5.70;99.90;;;;;;6191321;23;20450;-91
2023/03/04 04:39:39;;;;;;;6.63;0.90;;;5.70;99.90;;;;;;6191949;23;20016;-90
2023/03/04 04:42:05;;;;;;;0.23;0.10;;;5.70;99.90;;;;;;6167996;23;20024;-95
2023/03/04 04:45:13;;;;;;;2.13;0.37;;;5.70;99.90;;;;;;6192423;23;20349;-92
2023/03/04 04:48:32;;;;;;;3.42;0.40;;;5.70;99.90;;;;;;6191681;23;20021;-88
2023/03/04 04:50:58;;;;;;;2.42;0.40;;;5.70;99.90;;;;;;6226843;23;20039;-95
2023/03/04 04:53:23;;;;;;;1.70;0.40;;;5.70;99.90;;;;;;6174248;23;20509;-95
2023/03/04 04:55:49;;;;;;;1.37;0.30;;;5.70;99.90;;;;;;6194366;23;20020;-94
2023/03/04 04:58:15;;;;;;;2.83;0.37;;;5.60;99.90;;;;;;6201200;23;20016;-94
2023/03/04 05:00:41;;;;;;;1.00;0.13;;;5.70;99.90;;;;;;6200887;23;20020;-94
2023/03/04 05:03:07;;;;;;;1.60;0.50;;;5.70;99.90;;;;;;6199996;23;20020;-96
2023/03/04 05:05:57;;;;;;;1.58;0.32;;;5.60;99.90;;;;;;6199847;23;20068;-89
2023/03/04 05:08:23;;;;;;;2.50;0.30;;;5.70;99.90;;;;;;6196602;23;20035;-94
2023/03/04 05:10:49;;;;;;;1.53;0.20;;;5.70;99.90;;;;;;6197794;23;20020;-94
2023/03/04 05:13:15;;;;;;;3.97;0.57;;;5.70;99.90;;;;;;6174186;23;20017;-96
2023/03/04 05:19:42;;;;;;;1.67;0.25;;;5.60;99.90;;;;;;6220772;23;20019;-95
2023/03/04 05:22:08;;;;;;;3.13;0.70;;;5.60;99.90;;;;;;6196542;23;20095;-95
2023/03/04 05:24:34;;;;;;;3.15;0.28;;;5.60;99.90;;;;;;6148974;23;20016;-89
2023/03/04 05:27:00;;;;;;;2.60;0.30;;;5.60;99.90;;;;;;6197071;23;20091;-93
2023/03/04 05:29:26;;;;;;;1.05;0.30;;;5.60;99.90;;;;;;6197595;23;20066;-91
2023/03/04 05:31:52;;;;;;;1.13;0.27;;;5.70;99.90;;;;;;6198572;23;20044;-96
2023/03/04 05:34:18;;;;;;;2.13;0.52;;;5.60;99.90;;;;;;6192468;23;20031;-92
2023/03/04 05:36:44;;;;;;;0.53;0.20;;;5.70;99.90;;;;;;6172040;23;20100;-95
2023/03/04 05:39:10;;;;;;;4.77;0.57;;;5.70;99.90;;;;;;6197176;23;20021;-95
2023/03/04 05:41:35;;;;;;;0.97;0.20;;;5.70;99.90;;;;;;6197614;23;20040;-94
2023/03/04 06:09:37;;;;;;;1.55;0.40;;;5.70;99.90;;;;;;6247334;23;20456;-91
2023/03/04 06:12:09;;;;;;;2.08;0.40;;;5.70;99.90;;;;;;6172761;23;20031;-91
2023/03/04 06:14:35;;;;;;;2.38;0.45;;;5.60;99.90;;;;;;6195652;23;20023;-90
2023/03/04 06:17:03;;;;;;;2.73;0.60;;;5.70;99.90;;;;;;6170829;23;20012;-90
2023/03/04 06:19:29;;;;;;;1.55;0.30;;;5.70;99.90;;;;;;6195743;23;20067;-91
2023/03/04 06:21:54;;;;;;;2.10;0.50;;;5.60;99.90;;;;;;6195690;23;20039;-92
2023/03/04 06:24:20;;;;;;;4.00;0.20;;;5.60;99.90;;;;;;6195331;23;20016;-91
2023/03/04 06:26:46;;;;;;;2.35;0.30;;;5.60;99.90;;;;;;6195610;23;20099;-91
2023/03/04 06:29:15;;;;;;;1.47;0.57;;;5.60;99.90;;;;;;6195620;23;20113;-91
2023/03/04 06:31:41;;;;;;;1.65;0.20;;;5.60;99.90;;;;;;6195505;23;20024;-91
2023/03/04 06:34:07;;;;;;;2.90;0.30;;;5.50;99.90;;;;;;6195255;23;20023;-91
2023/03/04 06:36:33;;;;;;;0.52;0.20;;;5.50;99.90;;;;;;6195813;23;20051;-90
2023/03/04 06:39:07;;;;;;;2.07;0.13;;;5.50;99.90;;;;;;6195762;23;20012;-92
2023/03/04 06:41:56;;;;;;;1.35;0.40;;;5.50;99.90;;;;;;6195241;23;20012;-91
2023/03/04 06:44:33;;;;;;;1.73;0.30;;;5.50;99.90;;;;;;6194094;23;20039;-93
2023/03/04 06:46:58;;;;;;;2.80;0.30;;;5.60;99.90;;;;;;6170561;23;20020;-94
2023/03/04 06:49:24;;;;;;;1.50;0.30;;;5.60;99.90;;;;;;6195194;23;20015;-91
2023/03/04 06:51:50;;;;;;;4.73;0.30;;;5.60;99.90;;;;;;6195381;23;20030;-91
2023/03/04 06:54:15;;;;;;;4.53;0.57;;;5.60;99.90;;;;;;6170632;23;20020;-92
2023/03/04 06:56:41;;;;;;;2.13;0.53;;;5.60;99.90;;;;;;6195369;23;20513;-90
2023/03/04 06:59:10;;;;;;;8.00;0.50;;;5.60;99.90;;;;;;6195362;23;20023;-92
2023/03/04 07:01:41;;;;;;;3.30;0.40;;;5.70;99.90;;;;;;6195720;23;20012;-95
2023/03/04 07:04:17;;;;;;;4.03;0.60;;;5.70;99.90;;;;;;6196080;23;20019;-91
2023/03/04 07:06:43;;;;;;;4.78;0.52;;;5.70;99.90;;;;;;6195779;23;20460;-92
2023/03/04 07:09:09;;;;;;;2.57;0.40;;;5.70;99.90;;;;;;6195047;23;20016;-91
2023/03/04 07:11:34;;;;;;;4.00;0.57;;;5.70;99.90;;;;;;6195420;23;20047;-91
2023/03/04 07:14:00;;;;;;;5.00;0.60;;;5.70;99.90;;;;;;6195992;23;20059;-90
2023/03/04 07:16:45;;;;;;;5.70;0.50;;;5.60;99.90;;;;;;6194998;23;20024;-92
2023/03/04 07:19:43;;;;;;;3.15;0.52;;;5.60;99.90;;;;;;6237011;23;20074;-90
2023/03/04 07:22:09;;;;;;;4.07;0.70;;;5.60;99.90;;;;;;6196261;23;20074;-90
2023/03/04 07:24:35;;;;;;;2.13;0.50;;;5.60;99.90;;;;;;6195675;23;20067;-92
2023/03/04 07:27:00;;;;;;;2.60;0.60;;;5.60;99.90;;;;;;6195993;23;20055;-92
2023/03/04 07:29:26;;;;;;;4.80;0.93;;;5.60;99.90;;;;;;6195273;23;20035;-91
2023/03/04 07:31:52;;;;;;;7.13;1.00;;;5.60;99.90;;;;;;6195639;23;20020;-91
2023/03/04 07:34:18;;;;;;;3.57;0.73;;;5.70;99.90;;;;;;6195820;23;20016;-91
2023/03/04 07:36:43;;;;;;;7.27;0.60;;;5.70;99.90;;;;;;6170903;23;20090;-90
2023/03/04 07:39:11;;;;;;;5.50;1.03;;;5.70;99.90;;;;;;6170639;23;20078;-95
2023/03/04 07:41:38;;;;;;;4.90;0.60;;;5.70;99.90;;;;;;6195381;23;20008;-92
2023/03/04 07:44:05;;;;;;;2.88;0.43;;;5.80;99.90;;;;;;6195520;23;20020;-91
2023/03/04 07:46:31;;;;;;;2.97;0.90;;;5.80;99.90;;;;;;6195575;23;20100;-91
2023/03/04 07:48:57;;;;;;;7.40;0.67;;;5.80;99.90;;;;;;6195069;23;20051;-90
2023/03/04 07:51:24;;;;;;;5.20;0.93;;;5.80;99.90;;;;;;6195516;23;20016;-91
2023/03/04 07:53:54;;;;;;;6.45;0.80;;;5.80;99.90;;;;;;6195705;23;20012;-90
2023/03/04 07:56:23;;;;;;;3.90;0.63;;;5.80;99.90;;;;;;6197049;23;20016;-91
2023/03/04 07:58:52;;;;;;;5.28;0.98;;;5.80;99.90;;;;;;6197746;23;20114;-92
2023/03/04 08:01:24;;;;;;;5.57;0.52;;;5.80;99.90;;;;;;6197697;23;20039;-92
2023/03/04 08:03:50;;;;;;;3.50;0.57;;;5.70;99.90;;;;;;6197036;23;20020;-92
2023/03/04 08:06:18;;;;;;;3.97;1.03;;;5.70;99.90;;;;;;6197272;23;20020;-91
2023/03/04 08:08:45;;;;;;;7.65;1.15;;;5.80;99.90;;;;;;6197179;23;20278;-91
2023/03/04 08:11:13;;;;;;;5.70;0.95;;;5.80;99.90;;;;;;6197331;23;20020;-90
2023/03/04 08:13:39;;;;;;;6.30;1.17;;;5.80;99.90;;;;;;6197927;23;20016;-93
2023/03/04 08:16:05;;;;;;;4.27;0.73;;;5.80;99.90;;;;;;6197307;23;20055;-92
2023/03/04 08:18:31;;;;;;;5.88;1.00;;;5.80;99.90;;;;;;6172406;23;20020;-91
2023/03/04 08:20:57;;;;;;;9.87;1.30;;;5.90;99.90;;;;;;6196886;23;20020;-91
2023/03/04 08:23:23;;;;;;;9.30;1.20;;;5.90;99.90;;;;;;6196912;23;20255;-92
2023/03/04 08:25:49;;;;;;;7.50;0.70;;;5.90;99.90;;;;;;6197011;23;20016;-92
2023/03/04 08:28:16;;;;;;;9.93;1.92;;;5.90;99.90;;;;;;6197604;23;20012;-91
2023/03/04 08:30:41;;;;;;;6.75;0.70;;;6.00;99.90;;;;;;6197338;23;20016;-91
2023/03/04 08:33:08;;;;;;;6.40;1.40;;;6.00;99.90;;;;;;6197099;23;20012;-91
2023/03/04 08:35:37;;;;;;;5.13;1.15;;;6.00;99.90;;;;;;6197317;23;20016;-92
2023/03/04 08:38:03;;;;;;;5.25;0.50;;;6.00;99.90;;;;;;6196854;23;20046;-92
2023/03/04 08:40:29;;;;;;;8.90;0.70;;;6.00;99.90;;;;;;6172754;23;20016;-92
2023/03/04 08:42:55;;;;;;;7.47;0.82;;;6.10;99.90;;;;;;6196778;23;20012;-92
2023/03/04 08:45:21;;;;;;;8.68;1.50;;;6.10;99.90;;;;;;6197123;23;20016;-91
2023/03/04 08:47:47;;;;;;;3.27;0.83;;;6.10;99.90;;;;;;6197009;23;20013;-92
2023/03/04 08:50:13;;;;;;;2.43;0.40;;;6.10;99.90;;;;;;6197025;23;20066;-91
2023/03/04 08:52:39;;;;;;;4.00;0.50;;;6.10;99.90;;;;;;6197064;23;20104;-93
2023/03/04 08:55:05;;;;;;;2.03;0.50;;;6.20;99.90;;;;;;6196829;23;20016;-92
2023/03/04 08:57:30;;;;;;;4.60;0.80;;;6.20;99.90;;;;;;6197100;23;20072;-93
2023/03/04 08:59:56;;;;;;;5.77;0.70;;;6.20;99.90;;;;;;6197027;23;20255;-92
2023/03/04 09:02:22;;;;;;;4.00;0.47;;;6.30;99.90;;;;;;6197176;23;20012;-92
2023/03/04 09:04:47;;;;;;;4.23;0.90;;;6.20;99.90;;;;;;6196916;23;20012;-91
2023/03/04 09:07:13;;;;;;;4.17;0.70;;;6.30;99.90;;;;;;6196732;23;20016;-91
2023/03/04 09:09:40;;;;;;;3.33;0.53;;;6.20;99.90;;;;;;6197012;23;20020;-93
2023/03/04 09:12:06;;;;;;;2.90;0.28;;;6.20;99.90;;;;;;6196586;23;20052;-92
2023/03/04 09:14:34;;;;;;;6.38;0.80;;;6.30;99.90;;;;;;6196583;23;20342;-92
2023/03/04 09:17:01;;;;;;;5.47;0.43;;;6.20;99.90;;;;;;6148046;23;20035;-94
2023/03/04 09:19:27;;;;;;;3.08;0.52;;;6.30;99.90;;;;;;6196619;23;20345;-92
2023/03/04 09:21:54;;;;;;;7.20;0.70;;;6.30;99.90;;;;;;6196608;23;20099;-92
2023/03/04 09:24:20;;;;;;;1.65;0.52;;;6.30;99.90;;;;;;6196549;23;20020;-93
2023/03/04 09:26:50;;;;;;;2.38;0.35;;;6.20;99.90;;;;;;6196320;23;20012;-94
2023/03/04 09:29:16;;;;;;;1.55;0.22;;;6.00;99.90;;;;;;6196975;23;20055;-92
2023/03/04 09:31:42;;;;;;;1.80;0.47;;;6.00;99.90;;;;;;6196541;23;20085;-91
2023/03/04 09:34:08;;;;;;;6.17;0.97;;;6.00;99.90;;;;;;6196350;23;20047;-92
2023/03/04 09:36:33;;;;;;;4.80;0.97;;;6.10;99.90;;;;;;6196298;23;20016;-91
2023/03/04 09:39:00;;;;;;;3.57;0.27;;;6.10;99.90;;;;;;6196685;23;20082;-92
2023/03/04 09:41:36;;;;;;;2.58;0.50;;;6.10;99.90;;;;;;6196139;23;20099;-93
2023/03/04 09:44:12;;;;;;;2.83;0.40;;;6.20;99.90;;;;;;6196023;23;20536;-91
2023/03/04 09:46:40;;;;;;;4.15;0.32;;;6.40;99.90;;;;;;6196241;23;20020;-94
2023/03/04 09:49:06;;;;;;;2.53;0.30;;;6.50;99.90;;;;;;6196388;23;20019;-90
2023/03/04 09:51:42;;;;;;;2.83;0.37;;;6.60;99.90;;;;;;6196274;23;20020;-90
2023/03/04 11:05:31;;;;;;;4.38;0.70;;;6.50;99.90;;;;;;6218158;23;20021;-94
2023/03/04 11:11:57;;;;;;;7.57;0.65;;;6.50;99.90;;;;;;6102528;23;20106;-95
2023/03/04 11:14:29;;;;;;;5.30;0.57;;;6.60;99.90;;;;;;6081993;23;20025;-92
2023/03/04 11:23:37;;;;;;;3.22;0.65;;;6.80;99.90;;;;;;6188914;23;20028;-95
2023/03/04 11:26:13;;;;;;;9.65;1.10;;;6.80;99.90;;;;;;6131444;23;20447;-93
2023/03/04 11:28:51;;;;;;;5.82;0.75;;;6.80;99.90;;;;;;6187435;23;20474;-91
2023/03/04 11:31:31;;;;;;;5.38;0.73;;;6.70;99.90;;;;;;6140695;23;20134;-93
2023/03/04 13:12:19;;;;;;;5.00;1.02;;;6.90;99.90;;;;;;6216410;23;20383;-89
2023/03/04 13:15:06;;;;;;;3.90;0.70;;;7.10;99.90;;;;;;6165804;23;20406;-89
2023/03/04 13:17:51;;;;;;;4.75;0.80;;;7.20;99.90;;;;;;6165960;23;20091;-90
2023/03/04 13:25:53;;;;;;;;;;;;;;;;;;;;;
2023/03/04 13:28:52;;;;;;;4.60;0.80;;;7.20;99.90;;;;;;6160957;23;20035;-92
2023/03/04 13:35:41;;;;;;;2.22;0.98;;;7.00;99.90;;;;;;6197811;23;20100;-92
2023/03/04 13:38:36;;;;;;;5.13;0.65;;;7.10;99.90;;;;;;6159931;23;20076;-96
2023/03/04 13:41:18;;;;;;;4.43;0.60;;;7.00;99.90;;;;;;6172820;23;20025;-94
2023/03/04 13:43:47;;;;;;;6.93;0.80;;;6.90;99.90;;;;;;6148833;23;20017;-89
2023/03/04 13:46:42;;;;;;;5.50;1.00;;;6.80;99.90;;;;;;6146558;23;20374;-93
2023/03/04 14:04:43;;;;;;;3.90;0.65;;;6.50;99.90;;;;;;6203293;23;20028;-95
2023/03/04 14:07:23;;;;;;;3.80;0.40;;;6.40;99.90;;;;;;6173853;23;20055;-93
2023/03/04 14:10:13;;;;;;;4.47;0.30;;;6.30;99.90;;;;;;6170872;23;20023;-95
2023/03/04 14:12:51;;;;;;;3.70;0.60;;;6.20;99.90;;;;;;6172013;23;20445;-91
2023/03/04 14:15:30;;;;;;;3.10;0.57;;;6.20;99.90;;;;;;6176472;23;20028;-95
